sensor_id;sensor_type;location;lat;lon;timestamp;noise_LAeq;noise_LA_min;noise_LA_max;noise_LA01;noise_LA95
66274;Laerm;58450;52.150;4.466;2023-09-30T00:00:22;40.77;34.64;57.06;;
66274;Laerm;58450;52.150;4.466;2023-09-30T00:02:51;46.33;34.70;67.80;;
66274;Laerm;58450;52.150;4.466;2023-09-30T00:05:19;40.25;35.08;49.12;;
66274;Laerm;58450;52.150;4.466;2023-09-30T00:07:46;39.90;34.26;49.67;;
66274;Laerm;58450;52.150;4.466;2023-09-30T00:10:14;39.60;34.83;52.53;;
66274;Laerm;58450;52.150;4.466;2023-09-30T00:12:42;39.28;34.79;54.54;;
66274;Laerm;58450;52.150;4.466;2023-09-30T00:15:10;41.69;34.47;64.63;;
66274;Laerm;58450;52.150;4.466;2023-09-30T00:17:38;42.23;33.88;58.38;;
66274;Laerm;58450;52.150;4.466;2023-09-30T00:20:09;40.20;34.72;54.02;;
66274;Laerm;58450;52.150;4.466;2023-09-30T00:22:36;40.28;34.87;54.92;;
66274;Laerm;58450;52.150;4.466;2023-09-30T00:25:06;43.37;34.22;61.10;;
66274;Laerm;58450;52.150;4.466;2023-09-30T00:27:33;41.61;34.04;52.09;;
66274;Laerm;58450;52.150;4.466;2023-09-30T00:30:01;39.43;34.91;46.48;;
66274;Laerm;58450;52.150;4.466;2023-09-30T00:32:29;39.19;34.64;47.50;;
66274;Laerm;58450;52.150;4.466;2023-09-30T00:34:56;47.47;34.39;60.60;;
66274;Laerm;58450;52.150;4.466;2023-09-30T00:37:25;39.24;34.44;56.94;;
66274;Laerm;58450;52.150;4.466;2023-09-30T00:39:53;54.21;33.86;79.24;;
66274;Laerm;58450;52.150;4.466;2023-09-30T00:42:21;39.51;34.04;47.53;;
66274;Laerm;58450;52.150;4.466;2023-09-30T00:44:49;40.60;34.84;51.39;;
66274;Laerm;58450;52.150;4.466;2023-09-30T00:47:17;39.29;34.37;46.85;;
66274;Laerm;58450;52.150;4.466;2023-09-30T00:49:46;39.94;34.59;58.33;;
66274;Laerm;58450;52.150;4.466;2023-09-30T00:52:14;51.71;35.50;71.23;;
66274;Laerm;58450;52.150;4.466;2023-09-30T00:54:43;48.78;34.42;69.93;;
66274;Laerm;58450;52.150;4.466;2023-09-30T00:57:13;41.49;34.69;61.83;;
66274;Laerm;58450;52.150;4.466;2023-09-30T00:59:40;39.34;34.34;51.49;;
66274;Laerm;58450;52.150;4.466;2023-09-30T01:02:08;39.09;34.01;48.48;;
66274;Laerm;58450;52.150;4.466;2023-09-30T01:04:36;40.87;34.92;49.46;;
66274;Laerm;58450;52.150;4.466;2023-09-30T01:07:04;39.77;34.63;50.03;;
66274;Laerm;58450;52.150;4.466;2023-09-30T01:09:32;38.85;34.17;48.03;;
66274;Laerm;58450;52.150;4.466;2023-09-30T01:12:04;39.03;34.20;50.08;;
66274;Laerm;58450;52.150;4.466;2023-09-30T01:14:35;39.99;34.68;54.25;;
66274;Laerm;58450;52.150;4.466;2023-09-30T01:17:04;43.59;34.39;63.40;;
66274;Laerm;58450;52.150;4.466;2023-09-30T01:19:35;41.10;34.98;58.77;;
66274;Laerm;58450;52.150;4.466;2023-09-30T01:22:04;43.59;34.54;63.60;;
66274;Laerm;58450;52.150;4.466;2023-09-30T01:24:38;47.42;34.99;72.98;;
66274;Laerm;58450;52.150;4.466;2023-09-30T01:27:07;53.76;34.67;81.18;;
66274;Laerm;58450;52.150;4.466;2023-09-30T01:29:35;41.29;34.78;51.86;;
66274;Laerm;58450;52.150;4.466;2023-09-30T01:32:04;44.58;34.43;62.87;;
66274;Laerm;58450;52.150;4.466;2023-09-30T01:34:34;39.50;34.43;50.80;;
66274;Laerm;58450;52.150;4.466;2023-09-30T01:37:03;40.36;34.73;51.52;;
66274;Laerm;58450;52.150;4.466;2023-09-30T01:39:32;40.88;34.81;60.76;;
66274;Laerm;58450;52.150;4.466;2023-09-30T01:42:00;40.17;34.87;51.02;;
66274;Laerm;58450;52.150;4.466;2023-09-30T01:44:27;46.28;35.43;65.73;;
66274;Laerm;58450;52.150;4.466;2023-09-30T01:46:55;43.82;33.37;63.94;;
66274;Laerm;58450;52.150;4.466;2023-09-30T01:49:23;42.68;34.30;58.06;;
66274;Laerm;58450;52.150;4.466;2023-09-30T01:51:52;43.24;35.74;56.98;;
66274;Laerm;58450;52.150;4.466;2023-09-30T01:54:21;43.96;35.45;60.64;;
66274;Laerm;58450;52.150;4.466;2023-09-30T01:56:49;43.25;35.63;64.14;;
66274;Laerm;58450;52.150;4.466;2023-09-30T01:59:17;40.19;34.97;59.18;;
66274;Laerm;58450;52.150;4.466;2023-09-30T02:01:45;40.33;34.89;56.48;;
66274;Laerm;58450;52.150;4.466;2023-09-30T02:04:13;41.31;34.23;60.19;;
66274;Laerm;58450;52.150;4.466;2023-09-30T02:06:41;40.34;34.79;54.96;;
66274;Laerm;58450;52.150;4.466;2023-09-30T02:09:09;39.43;34.66;48.21;;
66274;Laerm;58450;52.150;4.466;2023-09-30T02:11:38;39.59;34.96;51.93;;
66274;Laerm;58450;52.150;4.466;2023-09-30T02:14:07;39.05;34.62;45.73;;
66274;Laerm;58450;52.150;4.466;2023-09-30T02:16:35;39.66;34.62;51.03;;
66274;Laerm;58450;52.150;4.466;2023-09-30T02:19:03;39.23;35.01;46.48;;
66274;Laerm;58450;52.150;4.466;2023-09-30T02:21:31;41.47;34.50;62.22;;
66274;Laerm;58450;52.150;4.466;2023-09-30T02:23:58;38.98;34.42;51.93;;
66274;Laerm;58450;52.150;4.466;2023-09-30T02:26:26;42.84;34.85;56.80;;
66274;Laerm;58450;52.150;4.466;2023-09-30T02:28:56;39.45;34.21;46.59;;
66274;Laerm;58450;52.150;4.466;2023-09-30T02:31:24;41.01;34.99;54.46;;
66274;Laerm;58450;52.150;4.466;2023-09-30T02:33:52;41.88;35.30;58.11;;
66274;Laerm;58450;52.150;4.466;2023-09-30T02:36:19;39.57;35.16;46.09;;
66274;Laerm;58450;52.150;4.466;2023-09-30T02:38:47;39.86;35.25;55.95;;
66274;Laerm;58450;52.150;4.466;2023-09-30T02:41:16;48.32;35.32;71.27;;
66274;Laerm;58450;52.150;4.466;2023-09-30T02:43:43;51.74;35.95;72.26;;
66274;Laerm;58450;52.150;4.466;2023-09-30T02:46:14;41.68;35.05;57.58;;
66274;Laerm;58450;52.150;4.466;2023-09-30T02:48:41;40.25;34.74;53.74;;
66274;Laerm;58450;52.150;4.466;2023-09-30T02:51:10;39.98;35.01;57.55;;
66274;Laerm;58450;52.150;4.466;2023-09-30T02:53:38;39.74;35.46;52.57;;
66274;Laerm;58450;52.150;4.466;2023-09-30T02:56:06;39.59;35.11;50.53;;
66274;Laerm;58450;52.150;4.466;2023-09-30T02:58:33;42.53;35.33;52.78;;
66274;Laerm;58450;52.150;4.466;2023-09-30T03:01:02;42.69;35.29;53.91;;
66274;Laerm;58450;52.150;4.466;2023-09-30T03:03:31;39.78;35.46;52.79;;
66274;Laerm;58450;52.150;4.466;2023-09-30T03:05:59;44.62;35.77;65.14;;
66274;Laerm;58450;52.150;4.466;2023-09-30T03:08:27;45.04;35.11;65.47;;
66274;Laerm;58450;52.150;4.466;2023-09-30T03:10:56;39.81;35.66;45.83;;
66274;Laerm;58450;52.150;4.466;2023-09-30T03:13:24;39.64;35.45;47.68;;
66274;Laerm;58450;52.150;4.466;2023-09-30T03:15:53;39.80;35.67;46.95;;
66274;Laerm;58450;52.150;4.466;2023-09-30T03:18:23;42.03;35.24;62.63;;
66274;Laerm;58450;52.150;4.466;2023-09-30T03:21:00;40.42;35.45;50.47;;
66274;Laerm;58450;52.150;4.466;2023-09-30T03:23:28;40.19;35.91;50.29;;
66274;Laerm;58450;52.150;4.466;2023-09-30T03:25:57;44.76;35.09;58.01;;
66274;Laerm;58450;52.150;4.466;2023-09-30T03:28:25;42.36;36.36;55.54;;
66274;Laerm;58450;52.150;4.466;2023-09-30T03:30:52;40.22;35.67;48.15;;
66274;Laerm;58450;52.150;4.466;2023-09-30T03:33:20;41.24;35.92;52.44;;
66274;Laerm;58450;52.150;4.466;2023-09-30T03:35:47;39.92;35.77;46.10;;
66274;Laerm;58450;52.150;4.466;2023-09-30T03:38:16;42.78;35.90;56.10;;
66274;Laerm;58450;52.150;4.466;2023-09-30T03:40:46;44.33;36.10;71.72;;
66274;Laerm;58450;52.150;4.466;2023-09-30T03:43:14;40.33;36.45;46.51;;
66274;Laerm;58450;52.150;4.466;2023-09-30T03:45:41;41.23;36.54;47.91;;
66274;Laerm;58450;52.150;4.466;2023-09-30T03:48:09;41.52;36.87;58.92;;
66274;Laerm;58450;52.150;4.466;2023-09-30T03:50:37;40.78;36.58;53.28;;
66274;Laerm;58450;52.150;4.466;2023-09-30T03:53:06;40.39;36.04;46.60;;
66274;Laerm;58450;52.150;4.466;2023-09-30T03:55:37;41.56;36.36;52.63;;
66274;Laerm;58450;52.150;4.466;2023-09-30T03:58:04;43.41;36.66;64.96;;
66274;Laerm;58450;52.150;4.466;2023-09-30T04:00:32;40.58;36.13;47.53;;
66274;Laerm;58450;52.150;4.466;2023-09-30T04:02:59;40.79;36.26;48.10;;
66274;Laerm;58450;52.150;4.466;2023-09-30T04:05:28;43.39;37.06;55.69;;
66274;Laerm;58450;52.150;4.466;2023-09-30T04:07:58;40.46;35.69;46.51;;
66274;Laerm;58450;52.150;4.466;2023-09-30T04:10:25;40.99;35.73;47.61;;
66274;Laerm;58450;52.150;4.466;2023-09-30T04:12:55;47.43;37.10;61.91;;
66274;Laerm;58450;52.150;4.466;2023-09-30T04:15:22;41.54;36.14;60.49;;
66274;Laerm;58450;52.150;4.466;2023-09-30T04:17:50;44.69;37.28;64.36;;
66274;Laerm;58450;52.150;4.466;2023-09-30T04:20:19;43.76;36.52;61.82;;
66274;Laerm;58450;52.150;4.466;2023-09-30T04:22:49;42.23;37.51;62.07;;
66274;Laerm;58450;52.150;4.466;2023-09-30T04:25:17;41.85;37.10;51.35;;
66274;Laerm;58450;52.150;4.466;2023-09-30T04:27:47;42.64;37.55;58.18;;
66274;Laerm;58450;52.150;4.466;2023-09-30T04:30:16;43.02;37.84;54.87;;
66274;Laerm;58450;52.150;4.466;2023-09-30T04:32:45;42.84;38.87;48.86;;
66274;Laerm;58450;52.150;4.466;2023-09-30T04:35:12;43.14;38.87;51.76;;
66274;Laerm;58450;52.150;4.466;2023-09-30T04:37:41;44.34;37.66;57.60;;
66274;Laerm;58450;52.150;4.466;2023-09-30T04:40:10;41.66;37.69;48.67;;
66274;Laerm;58450;52.150;4.466;2023-09-30T04:42:41;42.51;37.98;56.21;;
66274;Laerm;58450;52.150;4.466;2023-09-30T04:45:11;51.13;36.76;69.38;;
66274;Laerm;58450;52.150;4.466;2023-09-30T04:47:40;41.65;35.72;50.18;;
66274;Laerm;58450;52.150;4.466;2023-09-30T04:50:08;41.82;36.04;50.89;;
66274;Laerm;58450;52.150;4.466;2023-09-30T04:52:37;47.27;38.72;64.15;;
66274;Laerm;58450;52.150;4.466;2023-09-30T04:55:07;43.54;38.74;54.79;;
66274;Laerm;58450;52.150;4.466;2023-09-30T04:57:35;45.77;38.70;65.14;;
66274;Laerm;58450;52.150;4.466;2023-09-30T05:00:03;47.08;38.58;67.81;;
66274;Laerm;58450;52.150;4.466;2023-09-30T05:02:37;46.60;38.75;58.93;;
66274;Laerm;58450;52.150;4.466;2023-09-30T05:05:07;47.33;38.71;63.68;;
66274;Laerm;58450;52.150;4.466;2023-09-30T05:07:35;45.90;39.08;61.04;;
66274;Laerm;58450;52.150;4.466;2023-09-30T05:10:03;45.50;39.22;62.61;;
66274;Laerm;58450;52.150;4.466;2023-09-30T05:12:37;51.89;39.23;70.52;;
66274;Laerm;58450;52.150;4.466;2023-09-30T05:15:06;49.81;38.66;71.56;;
66274;Laerm;58450;52.150;4.466;2023-09-30T05:17:33;45.08;38.82;57.88;;
66274;Laerm;58450;52.150;4.466;2023-09-30T05:20:01;45.57;38.57;57.52;;
66274;Laerm;58450;52.150;4.466;2023-09-30T05:22:34;44.74;38.41;64.72;;
66274;Laerm;58450;52.150;4.466;2023-09-30T05:25:02;46.05;38.48;60.02;;
66274;Laerm;58450;52.150;4.466;2023-09-30T05:27:30;47.92;39.94;61.06;;
66274;Laerm;58450;52.150;4.466;2023-09-30T05:29:58;49.61;40.50;62.23;;
66274;Laerm;58450;52.150;4.466;2023-09-30T05:32:26;48.44;38.45;58.65;;
66274;Laerm;58450;52.150;4.466;2023-09-30T05:34:53;47.38;39.24;61.95;;
66274;Laerm;58450;52.150;4.466;2023-09-30T05:37:21;44.91;39.11;55.68;;
66274;Laerm;58450;52.150;4.466;2023-09-30T05:39:50;46.32;39.77;62.58;;
66274;Laerm;58450;52.150;4.466;2023-09-30T05:42:18;50.26;40.21;72.50;;
66274;Laerm;58450;52.150;4.466;2023-09-30T05:44:46;48.03;40.31;61.25;;
66274;Laerm;58450;52.150;4.466;2023-09-30T05:47:14;47.20;40.42;63.31;;
66274;Laerm;58450;52.150;4.466;2023-09-30T05:49:42;46.89;40.44;64.04;;
66274;Laerm;58450;52.150;4.466;2023-09-30T05:52:10;50.27;39.69;72.18;;
66274;Laerm;58450;52.150;4.466;2023-09-30T05:54:39;45.08;40.20;56.52;;
66274;Laerm;58450;52.150;4.466;2023-09-30T05:57:07;49.32;42.57;59.08;;
66274;Laerm;58450;52.150;4.466;2023-09-30T05:59:36;45.62;41.42;53.23;;
66274;Laerm;58450;52.150;4.466;2023-09-30T06:02:03;45.65;41.12;58.32;;
66274;Laerm;58450;52.150;4.466;2023-09-30T06:04:31;45.54;41.34;52.55;;
66274;Laerm;58450;52.150;4.466;2023-09-30T06:06:59;44.57;39.97;58.81;;
66274;Laerm;58450;52.150;4.466;2023-09-30T06:09:27;48.09;39.78;69.01;;
66274;Laerm;58450;52.150;4.466;2023-09-30T06:11:56;47.40;40.54;58.26;;
66274;Laerm;58450;52.150;4.466;2023-09-30T06:14:27;53.12;42.28;68.05;;
66274;Laerm;58450;52.150;4.466;2023-09-30T06:16:57;47.66;40.07;61.77;;
66274;Laerm;58450;52.150;4.466;2023-09-30T06:19:24;47.53;40.32;69.23;;
66274;Laerm;58450;52.150;4.466;2023-09-30T06:21:52;48.63;40.36;64.82;;
66274;Laerm;58450;52.150;4.466;2023-09-30T06:24:19;50.92;41.52;71.29;;
66274;Laerm;58450;52.150;4.466;2023-09-30T06:26:47;47.66;41.22;63.93;;
66274;Laerm;58450;52.150;4.466;2023-09-30T06:29:15;48.06;41.59;59.21;;
66274;Laerm;58450;52.150;4.466;2023-09-30T06:31:44;48.25;41.90;63.72;;
66274;Laerm;58450;52.150;4.466;2023-09-30T06:34:12;46.75;41.57;64.25;;
66274;Laerm;58450;52.150;4.466;2023-09-30T06:36:40;46.52;40.55;56.53;;
66274;Laerm;58450;52.150;4.466;2023-09-30T06:39:08;49.67;40.60;70.11;;
66274;Laerm;58450;52.150;4.466;2023-09-30T06:41:36;46.53;41.41;67.14;;
66274;Laerm;58450;52.150;4.466;2023-09-30T06:44:05;51.10;41.78;67.00;;
66274;Laerm;58450;52.150;4.466;2023-09-30T06:46:33;48.33;42.39;62.01;;
66274;Laerm;58450;52.150;4.466;2023-09-30T06:49:02;49.95;42.08;67.98;;
66274;Laerm;58450;52.150;4.466;2023-09-30T06:51:29;47.73;41.90;71.04;;
66274;Laerm;58450;52.150;4.466;2023-09-30T06:53:57;46.77;41.34;63.95;;
66274;Laerm;58450;52.150;4.466;2023-09-30T06:56:24;46.36;41.04;66.61;;
66274;Laerm;58450;52.150;4.466;2023-09-30T06:58:53;47.66;42.26;63.09;;
66274;Laerm;58450;52.150;4.466;2023-09-30T07:01:20;46.84;41.22;59.36;;
66274;Laerm;58450;52.150;4.466;2023-09-30T07:03:48;50.21;44.64;59.74;;
66274;Laerm;58450;52.150;4.466;2023-09-30T07:06:23;48.62;42.80;61.12;;
66274;Laerm;58450;52.150;4.466;2023-09-30T07:08:51;47.01;41.84;62.82;;
66274;Laerm;58450;52.150;4.466;2023-09-30T07:11:27;47.24;41.01;66.77;;
66274;Laerm;58450;52.150;4.466;2023-09-30T07:13:56;49.08;42.00;61.96;;
66274;Laerm;58450;52.150;4.466;2023-09-30T07:16:24;51.46;42.48;66.31;;
66274;Laerm;58450;52.150;4.466;2023-09-30T07:18:51;48.83;40.57;68.65;;
66274;Laerm;58450;52.150;4.466;2023-09-30T07:21:19;49.74;42.41;66.05;;
66274;Laerm;58450;52.150;4.466;2023-09-30T07:23:48;48.41;40.20;66.31;;
66274;Laerm;58450;52.150;4.466;2023-09-30T07:26:16;52.17;40.97;69.38;;
66274;Laerm;58450;52.150;4.466;2023-09-30T07:28:43;54.86;40.16;73.73;;
66274;Laerm;58450;52.150;4.466;2023-09-30T07:31:11;50.38;41.91;69.18;;
66274;Laerm;58450;52.150;4.466;2023-09-30T07:33:39;47.26;41.92;68.48;;
66274;Laerm;58450;52.150;4.466;2023-09-30T07:36:07;50.20;43.01;70.42;;
66274;Laerm;58450;52.150;4.466;2023-09-30T07:38:35;47.03;41.53;60.68;;
66274;Laerm;58450;52.150;4.466;2023-09-30T07:41:04;49.27;41.58;64.21;;
66274;Laerm;58450;52.150;4.466;2023-09-30T07:43:31;50.25;41.77;64.86;;
66274;Laerm;58450;52.150;4.466;2023-09-30T07:46:05;50.97;41.74;65.33;;
66274;Laerm;58450;52.150;4.466;2023-09-30T07:48:34;47.52;41.80;55.24;;
66274;Laerm;58450;52.150;4.466;2023-09-30T07:51:02;52.25;43.83;63.56;;
66274;Laerm;58450;52.150;4.466;2023-09-30T07:53:30;48.88;43.58;59.69;;
66274;Laerm;58450;52.150;4.466;2023-09-30T07:55:58;48.44;40.12;64.32;;
66274;Laerm;58450;52.150;4.466;2023-09-30T07:58:27;48.96;40.99;62.05;;
66274;Laerm;58450;52.150;4.466;2023-09-30T08:00:54;50.22;44.56;58.63;;
66274;Laerm;58450;52.150;4.466;2023-09-30T08:03:22;47.01;41.86;59.55;;
66274;Laerm;58450;52.150;4.466;2023-09-30T08:05:49;50.95;41.66;57.77;;
66274;Laerm;58450;52.150;4.466;2023-09-30T08:08:18;52.43;45.59;65.42;;
66274;Laerm;58450;52.150;4.466;2023-09-30T08:10:46;50.32;40.98;75.36;;
66274;Laerm;58450;52.150;4.466;2023-09-30T08:13:14;47.51;40.22;61.53;;
66274;Laerm;58450;52.150;4.466;2023-09-30T08:15:43;49.30;40.51;62.77;;
66274;Laerm;58450;52.150;4.466;2023-09-30T08:18:10;49.90;37.89;67.40;;
66274;Laerm;58450;52.150;4.466;2023-09-30T08:20:38;50.42;38.11;74.76;;
66274;Laerm;58450;52.150;4.466;2023-09-30T08:23:05;51.42;40.36;70.33;;
66274;Laerm;58450;52.150;4.466;2023-09-30T08:25:33;47.19;36.83;61.15;;
66274;Laerm;58450;52.150;4.466;2023-09-30T08:28:00;47.63;39.02;70.54;;
66274;Laerm;58450;52.150;4.466;2023-09-30T08:30:28;45.14;37.98;54.62;;
66274;Laerm;58450;52.150;4.466;2023-09-30T08:32:57;45.64;37.24;65.68;;
66274;Laerm;58450;52.150;4.466;2023-09-30T08:35:25;48.28;38.19;58.47;;
66274;Laerm;58450;52.150;4.466;2023-09-30T08:37:52;44.86;38.46;56.27;;
66274;Laerm;58450;52.150;4.466;2023-09-30T08:40:20;46.08;38.23;61.07;;
66274;Laerm;58450;52.150;4.466;2023-09-30T08:42:51;49.11;37.22;63.26;;
66274;Laerm;58450;52.150;4.466;2023-09-30T08:45:20;46.59;36.58;62.71;;
66274;Laerm;58450;52.150;4.466;2023-09-30T08:47:47;49.94;38.07;62.32;;
66274;Laerm;58450;52.150;4.466;2023-09-30T08:50:17;47.49;37.79;66.71;;
66274;Laerm;58450;52.150;4.466;2023-09-30T08:52:45;48.50;38.03;69.19;;
66274;Laerm;58450;52.150;4.466;2023-09-30T08:55:13;51.28;38.07;68.52;;
66274;Laerm;58450;52.150;4.466;2023-09-30T08:57:41;46.08;37.91;61.99;;
66274;Laerm;58450;52.150;4.466;2023-09-30T09:00:12;48.11;42.34;54.52;;
66274;Laerm;58450;52.150;4.466;2023-09-30T09:02:40;45.33;38.48;64.89;;
66274;Laerm;58450;52.150;4.466;2023-09-30T09:05:09;46.17;38.72;60.75;;
66274;Laerm;58450;52.150;4.466;2023-09-30T09:07:39;46.88;38.42;56.97;;
66274;Laerm;58450;52.150;4.466;2023-09-30T09:10:08;46.99;38.75;68.04;;
66274;Laerm;58450;52.150;4.466;2023-09-30T09:12:37;51.84;39.74;68.93;;
66274;Laerm;58450;52.150;4.466;2023-09-30T09:15:08;49.00;38.01;62.42;;
66274;Laerm;58450;52.150;4.466;2023-09-30T09:17:43;50.11;38.41;70.11;;
66274;Laerm;58450;52.150;4.466;2023-09-30T09:20:16;52.12;44.93;59.75;;
66274;Laerm;58450;52.150;4.466;2023-09-30T09:22:49;54.14;42.29;68.30;;
66274;Laerm;58450;52.150;4.466;2023-09-30T09:25:20;53.19;42.02;71.34;;
66274;Laerm;58450;52.150;4.466;2023-09-30T09:27:49;54.09;40.14;67.24;;
66274;Laerm;58450;52.150;4.466;2023-09-30T09:30:19;54.52;41.37;65.25;;
66274;Laerm;58450;52.150;4.466;2023-09-30T09:32:56;49.12;38.93;66.83;;
66274;Laerm;58450;52.150;4.466;2023-09-30T09:35:25;52.92;42.26;69.36;;
66274;Laerm;58450;52.150;4.466;2023-09-30T09:37:58;51.38;40.07;62.70;;
66274;Laerm;58450;52.150;4.466;2023-09-30T09:40:29;51.73;38.86;67.61;;
66274;Laerm;58450;52.150;4.466;2023-09-30T09:42:57;54.98;40.26;74.20;;
66274;Laerm;58450;52.150;4.466;2023-09-30T09:45:27;50.87;41.23;61.09;;
66274;Laerm;58450;52.150;4.466;2023-09-30T09:47:59;52.65;44.94;70.82;;
66274;Laerm;58450;52.150;4.466;2023-09-30T09:50:27;52.44;41.61;76.86;;
66274;Laerm;58450;52.150;4.466;2023-09-30T09:52:56;50.84;41.30;70.87;;
66274;Laerm;58450;52.150;4.466;2023-09-30T09:55:27;51.63;39.84;69.31;;
66274;Laerm;58450;52.150;4.466;2023-09-30T09:57:55;51.68;39.27;70.88;;
66274;Laerm;58450;52.150;4.466;2023-09-30T10:00:26;48.01;38.58;64.53;;
66274;Laerm;58450;52.150;4.466;2023-09-30T10:02:56;51.00;41.21;63.64;;
66274;Laerm;58450;52.150;4.466;2023-09-30T10:05:23;50.82;42.02;64.72;;
66274;Laerm;58450;52.150;4.466;2023-09-30T10:07:54;52.18;45.08;63.14;;
66274;Laerm;58450;52.150;4.466;2023-09-30T10:10:25;57.73;46.10;84.87;;
66274;Laerm;58450;52.150;4.466;2023-09-30T10:12:54;62.42;45.29;89.00;;
66274;Laerm;58450;52.150;4.466;2023-09-30T10:15:40;53.22;45.30;71.82;;
66274;Laerm;58450;52.150;4.466;2023-09-30T10:18:09;53.21;44.14;69.16;;
66274;Laerm;58450;52.150;4.466;2023-09-30T10:20:38;49.34;42.57;70.70;;
66274;Laerm;58450;52.150;4.466;2023-09-30T10:23:21;54.97;43.59;79.44;;
66274;Laerm;58450;52.150;4.466;2023-09-30T10:25:54;49.63;40.40;69.00;;
66274;Laerm;58450;52.150;4.466;2023-09-30T10:28:37;45.88;40.36;55.35;;
66274;Laerm;58450;52.150;4.466;2023-09-30T10:31:10;47.96;39.96;67.93;;
66274;Laerm;58450;52.150;4.466;2023-09-30T10:34:20;45.64;39.58;60.63;;
66274;Laerm;58450;52.150;4.466;2023-09-30T10:36:49;48.12;40.03;58.13;;
66274;Laerm;58450;52.150;4.466;2023-09-30T10:39:52;51.46;45.32;70.49;;
66274;Laerm;58450;52.150;4.466;2023-09-30T10:42:49;50.93;42.77;63.57;;
66274;Laerm;58450;52.150;4.466;2023-09-30T10:45:43;51.76;44.90;65.60;;
66274;Laerm;58450;52.150;4.466;2023-09-30T10:48:36;52.42;43.56;66.79;;
66274;Laerm;58450;52.150;4.466;2023-09-30T10:51:15;50.22;43.21;57.26;;
66274;Laerm;58450;52.150;4.466;2023-09-30T10:54:34;47.43;42.13;58.80;;
66274;Laerm;58450;52.150;4.466;2023-09-30T10:57:02;48.03;41.19;59.49;;
66274;Laerm;58450;52.150;4.466;2023-09-30T10:59:32;46.02;40.99;52.72;;
66274;Laerm;58450;52.150;4.466;2023-09-30T11:02:01;49.67;43.52;56.85;;
66274;Laerm;58450;52.150;4.466;2023-09-30T11:04:29;49.73;42.46;63.32;;
66274;Laerm;58450;52.150;4.466;2023-09-30T11:06:59;49.10;42.54;58.48;;
66274;Laerm;58450;52.150;4.466;2023-09-30T11:09:28;48.71;42.72;56.47;;
66274;Laerm;58450;52.150;4.466;2023-09-30T11:11:56;49.51;42.50;67.11;;
66274;Laerm;58450;52.150;4.466;2023-09-30T11:14:26;53.10;42.59;64.36;;
66274;Laerm;58450;52.150;4.466;2023-09-30T11:16:58;52.44;44.48;60.58;;
66274;Laerm;58450;52.150;4.466;2023-09-30T11:19:34;51.11;43.17;66.04;;
66274;Laerm;58450;52.150;4.466;2023-09-30T11:22:02;46.85;40.89;58.88;;
66274;Laerm;58450;52.150;4.466;2023-09-30T11:24:30;47.37;41.02;62.18;;
66274;Laerm;58450;52.150;4.466;2023-09-30T11:26:59;51.20;42.34;73.50;;
66274;Laerm;58450;52.150;4.466;2023-09-30T11:29:27;53.41;44.93;65.99;;
66274;Laerm;58450;52.150;4.466;2023-09-30T11:31:56;52.40;47.20;60.27;;
66274;Laerm;58450;52.150;4.466;2023-09-30T11:34:32;55.33;44.05;67.58;;
66274;Laerm;58450;52.150;4.466;2023-09-30T11:37:01;48.71;42.86;59.49;;
66274;Laerm;58450;52.150;4.466;2023-09-30T11:39:30;46.91;41.65;56.74;;
66274;Laerm;58450;52.150;4.466;2023-09-30T11:41:58;49.62;42.35;63.19;;
66274;Laerm;58450;52.150;4.466;2023-09-30T11:44:27;55.15;46.68;72.09;;
66274;Laerm;58450;52.150;4.466;2023-09-30T11:47:00;50.16;43.97;66.08;;
66274;Laerm;58450;52.150;4.466;2023-09-30T11:49:33;51.90;41.57;69.03;;
66274;Laerm;58450;52.150;4.466;2023-09-30T11:52:04;48.31;44.07;54.78;;
66274;Laerm;58450;52.150;4.466;2023-09-30T11:54:36;48.12;42.90;55.40;;
66274;Laerm;58450;52.150;4.466;2023-09-30T11:57:08;49.10;42.62;71.73;;
66274;Laerm;58450;52.150;4.466;2023-09-30T11:59:37;48.09;42.64;53.64;;
66274;Laerm;58450;52.150;4.466;2023-09-30T12:02:08;47.08;41.68;54.65;;
66274;Laerm;58450;52.150;4.466;2023-09-30T12:04:37;49.61;40.88;69.94;;
66274;Laerm;58450;52.150;4.466;2023-09-30T12:07:05;47.97;41.78;58.75;;
66274;Laerm;58450;52.150;4.466;2023-09-30T12:09:33;46.78;41.46;55.38;;
66274;Laerm;58450;52.150;4.466;2023-09-30T12:12:04;47.01;41.35;57.44;;
66274;Laerm;58450;52.150;4.466;2023-09-30T12:14:35;50.47;41.54;65.33;;
66274;Laerm;58450;52.150;4.466;2023-09-30T12:17:02;47.24;41.37;56.51;;
66274;Laerm;58450;52.150;4.466;2023-09-30T12:19:31;49.44;41.88;65.88;;
66274;Laerm;58450;52.150;4.466;2023-09-30T12:21:59;50.05;41.87;64.71;;
66274;Laerm;58450;52.150;4.466;2023-09-30T12:24:26;50.05;44.94;61.57;;
66274;Laerm;58450;52.150;4.466;2023-09-30T12:26:54;49.82;42.68;66.43;;
66274;Laerm;58450;52.150;4.466;2023-09-30T12:29:22;51.81;45.58;68.16;;
66274;Laerm;58450;52.150;4.466;2023-09-30T12:31:51;50.96;45.39;59.57;;
66274;Laerm;58450;52.150;4.466;2023-09-30T12:34:19;51.89;45.49;61.91;;
66274;Laerm;58450;52.150;4.466;2023-09-30T12:36:50;50.42;44.67;60.18;;
66274;Laerm;58450;52.150;4.466;2023-09-30T12:39:18;48.52;43.43;66.99;;
66274;Laerm;58450;52.150;4.466;2023-09-30T12:41:50;48.79;42.50;58.85;;
66274;Laerm;58450;52.150;4.466;2023-09-30T12:44:17;51.68;44.39;67.59;;
66274;Laerm;58450;52.150;4.466;2023-09-30T12:46:45;50.16;44.88;63.58;;
66274;Laerm;58450;52.150;4.466;2023-09-30T12:49:12;52.91;44.10;64.63;;
66274;Laerm;58450;52.150;4.466;2023-09-30T12:51:40;46.90;41.20;54.67;;
66274;Laerm;58450;52.150;4.466;2023-09-30T12:54:09;47.47;42.42;59.12;;
66274;Laerm;58450;52.150;4.466;2023-09-30T12:56:38;49.44;42.80;68.98;;
66274;Laerm;58450;52.150;4.466;2023-09-30T12:59:06;47.77;39.75;57.46;;
66274;Laerm;58450;52.150;4.466;2023-09-30T13:01:33;46.96;42.34;57.23;;
66274;Laerm;58450;52.150;4.466;2023-09-30T13:04:01;49.70;41.87;57.28;;
66274;Laerm;58450;52.150;4.466;2023-09-30T13:06:29;51.77;46.66;62.47;;
66274;Laerm;58450;52.150;4.466;2023-09-30T13:08:58;48.51;44.61;57.64;;
66274;Laerm;58450;52.150;4.466;2023-09-30T13:11:27;47.95;42.83;66.90;;
66274;Laerm;58450;52.150;4.466;2023-09-30T13:13:55;52.13;42.65;66.82;;
66274;Laerm;58450;52.150;4.466;2023-09-30T13:16:22;49.60;42.04;66.80;;
66274;Laerm;58450;52.150;4.466;2023-09-30T13:18:50;54.42;46.64;71.05;;
66274;Laerm;58450;52.150;4.466;2023-09-30T13:21:18;52.44;47.35;63.53;;
66274;Laerm;58450;52.150;4.466;2023-09-30T13:23:46;50.64;45.42;60.73;;
66274;Laerm;58450;52.150;4.466;2023-09-30T13:26:14;51.66;44.40;63.83;;
66274;Laerm;58450;52.150;4.466;2023-09-30T13:28:43;50.66;45.53;60.43;;
66274;Laerm;58450;52.150;4.466;2023-09-30T13:31:10;52.26;44.59;65.59;;
66274;Laerm;58450;52.150;4.466;2023-09-30T13:33:37;51.96;45.30;66.61;;
66274;Laerm;58450;52.150;4.466;2023-09-30T13:36:05;50.96;44.72;59.78;;
66274;Laerm;58450;52.150;4.466;2023-09-30T13:38:33;51.11;45.61;65.89;;
66274;Laerm;58450;52.150;4.466;2023-09-30T13:41:01;51.93;45.11;76.29;;
66274;Laerm;58450;52.150;4.466;2023-09-30T13:43:29;54.31;44.15;65.86;;
66274;Laerm;58450;52.150;4.466;2023-09-30T13:45:57;49.22;43.57;58.25;;
66274;Laerm;58450;52.150;4.466;2023-09-30T13:48:25;53.40;46.01;64.34;;
66274;Laerm;58450;52.150;4.466;2023-09-30T13:50:52;52.00;43.31;78.53;;
66274;Laerm;58450;52.150;4.466;2023-09-30T13:53:20;48.71;42.82;63.58;;
66274;Laerm;58450;52.150;4.466;2023-09-30T13:55:47;52.08;46.32;63.89;;